sensor_id;sensor_type;location;lat;lon;timestamp;P1;durP1;ratioP1;P2;durP2;ratioP2
64543;SDS011;50936;51.660;5.616;2022-12-18T00:04:02;30.02;;;10.45;;
64543;SDS011;50936;51.660;5.616;2022-12-18T00:06:32;65.45;;;21.63;;
64543;SDS011;50936;51.660;5.616;2022-12-18T00:08:59;68.80;;;23.48;;
64543;SDS011;50936;51.660;5.616;2022-12-18T00:11:29;67.43;;;22.58;;
64543;SDS011;50936;51.660;5.616;2022-12-18T00:13:57;65.72;;;21.17;;
64543;SDS011;50936;51.660;5.616;2022-12-18T00:16:26;71.30;;;23.25;;
64543;SDS011;50936;51.660;5.616;2022-12-18T00:18:57;68.97;;;22.55;;
64543;SDS011;50936;51.660;5.616;2022-12-18T00:21:26;69.63;;;22.48;;
64543;SDS011;50936;51.660;5.616;2022-12-18T00:23:56;56.90;;;19.75;;
64543;SDS011;50936;51.660;5.616;2022-12-18T00:26:26;53.70;;;19.20;;
64543;SDS011;50936;51.660;5.616;2022-12-18T00:29:08;50.88;;;17.80;;
64543;SDS011;50936;51.660;5.616;2022-12-18T00:31:42;56.40;;;20.40;;
64543;SDS011;50936;51.660;5.616;2022-12-18T00:34:10;54.17;;;19.08;;
64543;SDS011;50936;51.660;5.616;2022-12-18T00:36:39;34.88;;;13.27;;
64543;SDS011;50936;51.660;5.616;2022-12-18T00:39:07;50.47;;;18.30;;
64543;SDS011;50936;51.660;5.616;2022-12-18T00:41:35;67.13;;;21.65;;
64543;SDS011;50936;51.660;5.616;2022-12-18T00:46:49;60.15;;;20.73;;
64543;SDS011;50936;51.660;5.616;2022-12-18T00:49:17;55.65;;;19.17;;
64543;SDS011;50936;51.660;5.616;2022-12-18T00:51:46;65.40;;;21.25;;
64543;SDS011;50936;51.660;5.616;2022-12-18T00:54:15;65.55;;;21.85;;
64543;SDS011;50936;51.660;5.616;2022-12-18T00:56:43;65.20;;;20.60;;
64543;SDS011;50936;51.660;5.616;2022-12-18T00:59:18;67.38;;;22.17;;
64543;SDS011;50936;51.660;5.616;2022-12-18T01:01:45;53.67;;;19.88;;
64543;SDS011;50936;51.660;5.616;2022-12-18T01:04:13;67.30;;;22.35;;
64543;SDS011;50936;51.660;5.616;2022-12-18T01:06:44;42.72;;;14.98;;
64543;SDS011;50936;51.660;5.616;2022-12-18T01:09:12;45.25;;;15.82;;
64543;SDS011;50936;51.660;5.616;2022-12-18T01:11:39;28.13;;;12.10;;
64543;SDS011;50936;51.660;5.616;2022-12-18T01:14:06;65.05;;;22.63;;
64543;SDS011;50936;51.660;5.616;2022-12-18T01:16:33;58.05;;;20.48;;
64543;SDS011;50936;51.660;5.616;2022-12-18T01:19:00;62.83;;;22.30;;
64543;SDS011;50936;51.660;5.616;2022-12-18T01:21:26;46.33;;;16.35;;
64543;SDS011;50936;51.660;5.616;2022-12-18T01:23:54;63.13;;;20.13;;
64543;SDS011;50936;51.660;5.616;2022-12-18T01:26:23;66.30;;;20.92;;
64543;SDS011;50936;51.660;5.616;2022-12-18T01:28:53;47.25;;;15.07;;
64543;SDS011;50936;51.660;5.616;2022-12-18T01:31:24;38.15;;;15.45;;
64543;SDS011;50936;51.660;5.616;2022-12-18T01:33:55;61.97;;;22.27;;
64543;SDS011;50936;51.660;5.616;2022-12-18T01:38:53;62.53;;;21.05;;
64543;SDS011;50936;51.660;5.616;2022-12-18T01:41:22;35.58;;;14.32;;
64543;SDS011;50936;51.660;5.616;2022-12-18T01:47:46;39.70;;;13.80;;
64543;SDS011;50936;51.660;5.616;2022-12-18T01:50:38;65.55;;;19.23;;
64543;SDS011;50936;51.660;5.616;2022-12-18T01:53:21;52.80;;;17.25;;
64543;SDS011;50936;51.660;5.616;2022-12-18T01:55:53;20.63;;;7.68;;
64543;SDS011;50936;51.660;5.616;2022-12-18T01:58:32;29.33;;;11.98;;
64543;SDS011;50936;51.660;5.616;2022-12-18T02:01:08;57.80;;;18.38;;
64543;SDS011;50936;51.660;5.616;2022-12-18T02:03:35;57.58;;;18.80;;
64543;SDS011;50936;51.660;5.616;2022-12-18T02:08:54;50.30;;;19.45;;
64543;SDS011;50936;51.660;5.616;2022-12-18T02:14:45;37.30;;;15.00;;
64543;SDS011;50936;51.660;5.616;2022-12-18T02:17:47;59.55;;;20.67;;
64543;SDS011;50936;51.660;5.616;2022-12-18T02:20:35;49.53;;;19.02;;
64543;SDS011;50936;51.660;5.616;2022-12-18T02:26:46;53.10;;;19.55;;
64543;SDS011;50936;51.660;5.616;2022-12-18T02:29:28;38.42;;;14.07;;
64543;SDS011;50936;51.660;5.616;2022-12-18T02:32:06;46.50;;;18.08;;
64543;SDS011;50936;51.660;5.616;2022-12-18T02:34:41;56.22;;;20.45;;
64543;SDS011;50936;51.660;5.616;2022-12-18T02:37:14;44.28;;;17.23;;
64543;SDS011;50936;51.660;5.616;2022-12-18T02:39:47;44.70;;;16.52;;
64543;SDS011;50936;51.660;5.616;2022-12-18T02:42:19;48.22;;;18.60;;
64543;SDS011;50936;51.660;5.616;2022-12-18T02:44:48;37.78;;;13.82;;
64543;SDS011;50936;51.660;5.616;2022-12-18T02:47:24;45.42;;;17.67;;
64543;SDS011;50936;51.660;5.616;2022-12-18T02:50:18;30.73;;;11.65;;
64543;SDS011;50936;51.660;5.616;2022-12-18T02:53:18;26.17;;;10.73;;
64543;SDS011;50936;51.660;5.616;2022-12-18T03:04:42;47.05;;;17.08;;
64543;SDS011;50936;51.660;5.616;2022-12-18T03:07:41;46.63;;;15.00;;
64543;SDS011;50936;51.660;5.616;2022-12-18T03:10:19;35.05;;;13.90;;
64543;SDS011;50936;51.660;5.616;2022-12-18T03:12:58;33.45;;;11.00;;
64543;SDS011;50936;51.660;5.616;2022-12-18T03:15:37;41.10;;;16.02;;
64543;SDS011;50936;51.660;5.616;2022-12-18T03:18:17;46.65;;;17.15;;
64543;SDS011;50936;51.660;5.616;2022-12-18T03:20:54;43.17;;;15.20;;
64543;SDS011;50936;51.660;5.616;2022-12-18T03:23:38;46.63;;;17.73;;
64543;SDS011;50936;51.660;5.616;2022-12-18T03:26:12;39.25;;;15.40;;
64543;SDS011;50936;51.660;5.616;2022-12-18T03:28:59;29.58;;;11.73;;
64543;SDS011;50936;51.660;5.616;2022-12-18T03:31:37;25.17;;;11.45;;
64543;SDS011;50936;51.660;5.616;2022-12-18T03:34:12;26.98;;;11.68;;
64543;SDS011;50936;51.660;5.616;2022-12-18T03:36:46;41.08;;;15.15;;
64543;SDS011;50936;51.660;5.616;2022-12-18T03:39:14;37.22;;;13.48;;
64543;SDS011;50936;51.660;5.616;2022-12-18T03:47:26;30.67;;;14.02;;
64543;SDS011;50936;51.660;5.616;2022-12-18T03:50:14;32.17;;;10.95;;
64543;SDS011;50936;51.660;5.616;2022-12-18T03:52:54;44.30;;;14.05;;
64543;SDS011;50936;51.660;5.616;2022-12-18T03:55:27;32.70;;;11.50;;
64543;SDS011;50936;51.660;5.616;2022-12-18T03:58:03;38.83;;;15.55;;
64543;SDS011;50936;51.660;5.616;2022-12-18T04:00:46;30.65;;;12.55;;
64543;SDS011;50936;51.660;5.616;2022-12-18T04:03:19;25.23;;;9.00;;
64543;SDS011;50936;51.660;5.616;2022-12-18T04:05:52;33.30;;;13.20;;
64543;SDS011;50936;51.660;5.616;2022-12-18T04:08:22;36.38;;;13.57;;
64543;SDS011;50936;51.660;5.616;2022-12-18T04:11:00;16.23;;;7.15;;
64543;SDS011;50936;51.660;5.616;2022-12-18T04:13:30;14.32;;;6.38;;
64543;SDS011;50936;51.660;5.616;2022-12-18T04:16:05;33.38;;;12.82;;
64543;SDS011;50936;51.660;5.616;2022-12-18T04:18:33;31.65;;;13.25;;
64543;SDS011;50936;51.660;5.616;2022-12-18T04:21:01;41.85;;;14.52;;
64543;SDS011;50936;51.660;5.616;2022-12-18T04:23:29;31.55;;;11.75;;
64543;SDS011;50936;51.660;5.616;2022-12-18T04:25:57;17.02;;;7.60;;
64543;SDS011;50936;51.660;5.616;2022-12-18T04:28:45;29.00;;;10.68;;
64543;SDS011;50936;51.660;5.616;2022-12-18T04:31:12;20.63;;;10.48;;
64543;SDS011;50936;51.660;5.616;2022-12-18T04:33:39;24.73;;;12.35;;
64543;SDS011;50936;51.660;5.616;2022-12-18T04:36:07;32.85;;;12.20;;
64543;SDS011;50936;51.660;5.616;2022-12-18T04:38:34;29.20;;;11.75;;
64543;SDS011;50936;51.660;5.616;2022-12-18T04:41:06;35.67;;;15.48;;
64543;SDS011;50936;51.660;5.616;2022-12-18T04:43:35;33.47;;;11.70;;
64543;SDS011;50936;51.660;5.616;2022-12-18T04:46:03;34.92;;;13.90;;
64543;SDS011;50936;51.660;5.616;2022-12-18T04:48:32;12.70;;;6.28;;
64543;SDS011;50936;51.660;5.616;2022-12-18T04:51:01;19.23;;;8.23;;
64543;SDS011;50936;51.660;5.616;2022-12-18T04:53:28;17.50;;;6.35;;
64543;SDS011;50936;51.660;5.616;2022-12-18T04:56:02;20.23;;;8.45;;
64543;SDS011;50936;51.660;5.616;2022-12-18T04:58:35;16.58;;;8.88;;
64543;SDS011;50936;51.660;5.616;2022-12-18T05:01:03;32.35;;;12.77;;
64543;SDS011;50936;51.660;5.616;2022-12-18T05:03:31;39.60;;;15.05;;
64543;SDS011;50936;51.660;5.616;2022-12-18T05:05:58;17.98;;;7.10;;
64543;SDS011;50936;51.660;5.616;2022-12-18T05:08:25;32.08;;;12.48;;
64543;SDS011;50936;51.660;5.616;2022-12-18T05:10:59;34.25;;;12.90;;
64543;SDS011;50936;51.660;5.616;2022-12-18T05:13:28;27.98;;;11.20;;
64543;SDS011;50936;51.660;5.616;2022-12-18T05:15:55;35.63;;;13.93;;
64543;SDS011;50936;51.660;5.616;2022-12-18T05:18:23;18.60;;;8.88;;
64543;SDS011;50936;51.660;5.616;2022-12-18T05:20:51;24.20;;;11.50;;
64543;SDS011;50936;51.660;5.616;2022-12-18T05:23:19;30.85;;;13.23;;
64543;SDS011;50936;51.660;5.616;2022-12-18T05:25:52;20.20;;;8.80;;
64543;SDS011;50936;51.660;5.616;2022-12-18T05:28:20;30.02;;;12.38;;
64543;SDS011;50936;51.660;5.616;2022-12-18T05:30:49;31.15;;;11.88;;
64543;SDS011;50936;51.660;5.616;2022-12-18T05:33:23;33.38;;;12.15;;
64543;SDS011;50936;51.660;5.616;2022-12-18T05:35:54;31.77;;;12.32;;
64543;SDS011;50936;51.660;5.616;2022-12-18T05:38:26;25.33;;;10.93;;
64543;SDS011;50936;51.660;5.616;2022-12-18T05:40:55;28.48;;;11.25;;
64543;SDS011;50936;51.660;5.616;2022-12-18T05:43:23;32.30;;;12.77;;
64543;SDS011;50936;51.660;5.616;2022-12-18T05:45:53;35.03;;;12.88;;
64543;SDS011;50936;51.660;5.616;2022-12-18T05:48:21;35.47;;;13.63;;
64543;SDS011;50936;51.660;5.616;2022-12-18T05:50:48;28.02;;;9.65;;
64543;SDS011;50936;51.660;5.616;2022-12-18T05:53:17;35.10;;;12.65;;
64543;SDS011;50936;51.660;5.616;2022-12-18T05:55:46;30.80;;;10.65;;
64543;SDS011;50936;51.660;5.616;2022-12-18T05:58:14;28.33;;;11.10;;
64543;SDS011;50936;51.660;5.616;2022-12-18T06:00:42;33.92;;;12.52;;
64543;SDS011;50936;51.660;5.616;2022-12-18T06:03:11;30.83;;;11.35;;
64543;SDS011;50936;51.660;5.616;2022-12-18T06:05:41;23.02;;;9.63;;
64543;SDS011;50936;51.660;5.616;2022-12-18T06:08:11;12.73;;;7.25;;
64543;SDS011;50936;51.660;5.616;2022-12-18T06:10:39;23.70;;;8.95;;
64543;SDS011;50936;51.660;5.616;2022-12-18T06:13:07;38.95;;;13.35;;
64543;SDS011;50936;51.660;5.616;2022-12-18T06:15:37;31.92;;;12.25;;
64543;SDS011;50936;51.660;5.616;2022-12-18T06:18:05;31.75;;;13.38;;
64543;SDS011;50936;51.660;5.616;2022-12-18T06:20:32;31.52;;;13.13;;
64543;SDS011;50936;51.660;5.616;2022-12-18T06:22:59;17.65;;;7.57;;
64543;SDS011;50936;51.660;5.616;2022-12-18T06:25:26;18.70;;;8.63;;
64543;SDS011;50936;51.660;5.616;2022-12-18T06:27:53;27.42;;;8.95;;
64543;SDS011;50936;51.660;5.616;2022-12-18T06:30:20;18.67;;;8.88;;
64543;SDS011;50936;51.660;5.616;2022-12-18T06:32:50;26.15;;;10.45;;
64543;SDS011;50936;51.660;5.616;2022-12-18T06:35:22;31.50;;;12.48;;
64543;SDS011;50936;51.660;5.616;2022-12-18T06:37:50;18.55;;;7.60;;
64543;SDS011;50936;51.660;5.616;2022-12-18T06:40:17;29.20;;;11.50;;
64543;SDS011;50936;51.660;5.616;2022-12-18T06:42:44;29.63;;;12.98;;
64543;SDS011;50936;51.660;5.616;2022-12-18T06:45:11;25.52;;;10.60;;
64543;SDS011;50936;51.660;5.616;2022-12-18T06:47:38;27.85;;;13.00;;
64543;SDS011;50936;51.660;5.616;2022-12-18T06:50:04;36.78;;;13.93;;
64543;SDS011;50936;51.660;5.616;2022-12-18T06:52:32;20.95;;;8.98;;
64543;SDS011;50936;51.660;5.616;2022-12-18T06:55:00;17.73;;;6.20;;
64543;SDS011;50936;51.660;5.616;2022-12-18T06:57:27;23.88;;;10.57;;
64543;SDS011;50936;51.660;5.616;2022-12-18T06:59:53;15.30;;;6.50;;
64543;SDS011;50936;51.660;5.616;2022-12-18T07:02:20;28.20;;;10.77;;
64543;SDS011;50936;51.660;5.616;2022-12-18T07:04:47;15.05;;;7.45;;
64543;SDS011;50936;51.660;5.616;2022-12-18T07:07:17;20.55;;;9.85;;
64543;SDS011;50936;51.660;5.616;2022-12-18T07:09:44;24.85;;;10.93;;
64543;SDS011;50936;51.660;5.616;2022-12-18T07:12:10;22.50;;;10.65;;
64543;SDS011;50936;51.660;5.616;2022-12-18T07:14:37;27.38;;;11.48;;
64543;SDS011;50936;51.660;5.616;2022-12-18T07:17:04;19.25;;;9.52;;
64543;SDS011;50936;51.660;5.616;2022-12-18T07:19:32;24.40;;;11.30;;
64543;SDS011;50936;51.660;5.616;2022-12-18T07:21:59;21.80;;;9.77;;
64543;SDS011;50936;51.660;5.616;2022-12-18T07:24:26;27.70;;;10.63;;
64543;SDS011;50936;51.660;5.616;2022-12-18T07:26:54;17.77;;;9.43;;
64543;SDS011;50936;51.660;5.616;2022-12-18T07:29:20;24.13;;;10.20;;
64543;SDS011;50936;51.660;5.616;2022-12-18T07:31:47;23.02;;;8.52;;
64543;SDS011;50936;51.660;5.616;2022-12-18T07:34:14;10.77;;;6.70;;
64543;SDS011;50936;51.660;5.616;2022-12-18T07:36:41;27.75;;;9.95;;
64543;SDS011;50936;51.660;5.616;2022-12-18T07:39:10;20.17;;;8.05;;
64543;SDS011;50936;51.660;5.616;2022-12-18T07:41:38;32.90;;;12.25;;
64543;SDS011;50936;51.660;5.616;2022-12-18T07:44:14;23.58;;;10.27;;
64543;SDS011;50936;51.660;5.616;2022-12-18T07:46:41;31.40;;;10.02;;
64543;SDS011;50936;51.660;5.616;2022-12-18T07:49:08;21.40;;;9.35;;
64543;SDS011;50936;51.660;5.616;2022-12-18T07:51:35;19.13;;;8.45;;
64543;SDS011;50936;51.660;5.616;2022-12-18T07:54:01;23.35;;;10.23;;
64543;SDS011;50936;51.660;5.616;2022-12-18T07:56:28;24.23;;;8.80;;
64543;SDS011;50936;51.660;5.616;2022-12-18T07:58:57;31.85;;;11.63;;
64543;SDS011;50936;51.660;5.616;2022-12-18T08:01:25;23.45;;;10.68;;
64543;SDS011;50936;51.660;5.616;2022-12-18T08:03:53;18.70;;;8.23;;
64543;SDS011;50936;51.660;5.616;2022-12-18T08:06:19;22.05;;;8.65;;
64543;SDS011;50936;51.660;5.616;2022-12-18T08:08:50;19.55;;;10.15;;
64543;SDS011;50936;51.660;5.616;2022-12-18T08:11:19;25.40;;;10.80;;
64543;SDS011;50936;51.660;5.616;2022-12-18T08:13:47;24.77;;;10.65;;
64543;SDS011;50936;51.660;5.616;2022-12-18T08:16:14;20.33;;;8.65;;
64543;SDS011;50936;51.660;5.616;2022-12-18T08:18:42;19.13;;;8.88;;
64543;SDS011;50936;51.660;5.616;2022-12-18T08:23:41;26.40;;;10.85;;
64543;SDS011;50936;51.660;5.616;2022-12-18T08:26:09;19.80;;;8.45;;
64543;SDS011;50936;51.660;5.616;2022-12-18T08:28:37;24.42;;;9.05;;
64543;SDS011;50936;51.660;5.616;2022-12-18T08:31:05;13.52;;;7.63;;
64543;SDS011;50936;51.660;5.616;2022-12-18T08:33:33;22.88;;;11.02;;
64543;SDS011;50936;51.660;5.616;2022-12-18T08:36:02;22.52;;;11.32;;
64543;SDS011;50936;51.660;5.616;2022-12-18T08:38:31;26.30;;;9.95;;
64543;SDS011;50936;51.660;5.616;2022-12-18T08:41:03;22.45;;;9.00;;
64543;SDS011;50936;51.660;5.616;2022-12-18T08:43:35;19.88;;;9.00;;
64543;SDS011;50936;51.660;5.616;2022-12-18T08:48:50;26.33;;;10.23;;
64543;SDS011;50936;51.660;5.616;2022-12-18T08:51:19;23.40;;;10.55;;
64543;SDS011;50936;51.660;5.616;2022-12-18T08:53:46;30.10;;;11.98;;
64543;SDS011;50936;51.660;5.616;2022-12-18T08:56:13;24.77;;;10.57;;
64543;SDS011;50936;51.660;5.616;2022-12-18T08:58:41;16.38;;;6.63;;
64543;SDS011;50936;51.660;5.616;2022-12-18T09:01:09;25.88;;;9.90;;
64543;SDS011;50936;51.660;5.616;2022-12-18T09:03:38;19.85;;;8.82;;
64543;SDS011;50936;51.660;5.616;2022-12-18T09:06:06;13.77;;;6.60;;
64543;SDS011;50936;51.660;5.616;2022-12-18T09:08:34;21.80;;;9.10;;
64543;SDS011;50936;51.660;5.616;2022-12-18T09:11:01;27.40;;;11.20;;
64543;SDS011;50936;51.660;5.616;2022-12-18T09:13:28;18.85;;;8.68;;
64543;SDS011;50936;51.660;5.616;2022-12-18T09:15:55;16.65;;;7.90;;
64543;SDS011;50936;51.660;5.616;2022-12-18T09:18:23;20.10;;;8.75;;
64543;SDS011;50936;51.660;5.616;2022-12-18T09:20:51;22.58;;;9.57;;
64543;SDS011;50936;51.660;5.616;2022-12-18T09:23:19;16.20;;;8.43;;
64543;SDS011;50936;51.660;5.616;2022-12-18T09:25:47;26.23;;;11.93;;
64543;SDS011;50936;51.660;5.616;2022-12-18T09:28:15;22.20;;;8.43;;
64543;SDS011;50936;51.660;5.616;2022-12-18T09:30:46;25.73;;;10.65;;
64543;SDS011;50936;51.660;5.616;2022-12-18T09:33:15;15.00;;;7.03;;
64543;SDS011;50936;51.660;5.616;2022-12-18T09:35:43;27.88;;;12.18;;
64543;SDS011;50936;51.660;5.616;2022-12-18T09:38:13;17.60;;;8.15;;
64543;SDS011;50936;51.660;5.616;2022-12-18T09:40:44;31.10;;;13.93;;
64543;SDS011;50936;51.660;5.616;2022-12-18T09:43:15;22.10;;;8.43;;
64543;SDS011;50936;51.660;5.616;2022-12-18T09:46:08;18.17;;;8.93;;
64543;SDS011;50936;51.660;5.616;2022-12-18T09:48:48;25.33;;;10.15;;
64543;SDS011;50936;51.660;5.616;2022-12-18T09:51:22;16.80;;;6.88;;
64543;SDS011;50936;51.660;5.616;2022-12-18T09:57:16;30.13;;;11.52;;
64543;SDS011;50936;51.660;5.616;2022-12-18T09:59:55;19.90;;;7.68;;
64543;SDS011;50936;51.660;5.616;2022-12-18T10:02:36;27.38;;;10.45;;
64543;SDS011;50936;51.660;5.616;2022-12-18T10:10:41;23.42;;;10.63;;
64543;SDS011;50936;51.660;5.616;2022-12-18T10:13:36;23.65;;;8.40;;
64543;SDS011;50936;51.660;5.616;2022-12-18T10:19:39;14.65;;;6.80;;
64543;SDS011;50936;51.660;5.616;2022-12-18T10:22:35;22.27;;;10.68;;
64543;SDS011;50936;51.660;5.616;2022-12-18T10:25:15;32.25;;;12.52;;
64543;SDS011;50936;51.660;5.616;2022-12-18T10:27:56;24.23;;;9.43;;
64543;SDS011;50936;51.660;5.616;2022-12-18T10:30:33;21.33;;;9.18;;
64543;SDS011;50936;51.660;5.616;2022-12-18T10:33:01;22.23;;;9.55;;
64543;SDS011;50936;51.660;5.616;2022-12-18T10:35:29;24.00;;;9.45;;
64543;SDS011;50936;51.660;5.616;2022-12-18T10:38:00;24.58;;;10.07;;
64543;SDS011;50936;51.660;5.616;2022-12-18T10:41:08;19.25;;;9.88;;
64543;SDS011;50936;51.660;5.616;2022-12-18T10:44:10;21.33;;;9.30;;
64543;SDS011;50936;51.660;5.616;2022-12-18T10:46:47;20.95;;;8.85;;
64543;SDS011;50936;51.660;5.616;2022-12-18T10:49:24;28.52;;;12.48;;
64543;SDS011;50936;51.660;5.616;2022-12-18T10:52:11;31.95;;;11.65;;
64543;SDS011;50936;51.660;5.616;2022-12-18T10:54:46;21.65;;;9.77;;
64543;SDS011;50936;51.660;5.616;2022-12-18T11:02:36;20.65;;;9.10;;
64543;SDS011;50936;51.660;5.616;2022-12-18T11:05:50;27.17;;;10.20;;
64543;SDS011;50936;51.660;5.616;2022-12-18T11:08:00;28.33;;;13.32;;
64543;SDS011;50936;51.660;5.616;2022-12-18T11:10:35;20.73;;;8.27;;
64543;SDS011;50936;51.660;5.616;2022-12-18T11:13:10;18.27;;;8.98;;
64543;SDS011;50936;51.660;5.616;2022-12-18T11:15:50;26.92;;;9.95;;
64543;SDS011;50936;51.660;5.616;2022-12-18T11:18:19;18.52;;;8.07;;
64543;SDS011;50936;51.660;5.616;2022-12-18T11:20:54;24.30;;;10.80;;
64543;SDS011;50936;51.660;5.616;2022-12-18T11:23:34;27.90;;;11.02;;
64543;SDS011;50936;51.660;5.616;2022-12-18T11:26:04;22.35;;;9.85;;
64543;SDS011;50936;51.660;5.616;2022-12-18T11:28:51;25.90;;;12.10;;
64543;SDS011;50936;51.660;5.616;2022-12-18T11:31:34;20.08;;;6.97;;
64543;SDS011;50936;51.660;5.616;2022-12-18T11:36:56;25.52;;;9.65;;
64543;SDS011;50936;51.660;5.616;2022-12-18T11:39:44;24.95;;;11.20;;
64543;SDS011;50936;51.660;5.616;2022-12-18T11:47:41;21.52;;;9.75;;
64543;SDS011;50936;51.660;5.616;2022-12-18T11:50:13;30.23;;;11.07;;
64543;SDS011;50936;51.660;5.616;2022-12-18T11:52:50;23.02;;;10.48;;
64543;SDS011;50936;51.660;5.616;2022-12-18T12:09:54;21.73;;;9.57;;
64543;SDS011;50936;51.660;5.616;2022-12-18T12:15:21;16.23;;;7.68;;
64543;SDS011;50936;51.660;5.616;2022-12-18T12:29:14;22.02;;;9.95;;
64543;SDS011;50936;51.660;5.616;2022-12-18T12:37:39;15.90;;;7.57;;
64543;SDS011;50936;51.660;5.616;2022-12-18T12:40:30;22.85;;;10.55;;
64543;SDS011;50936;51.660;5.616;2022-12-18T12:46:16;27.27;;;10.85;;
64543;SDS011;50936;51.660;5.616;2022-12-18T12:48:49;22.10;;;8.50;;
64543;SDS011;50936;51.660;5.616;2022-12-18T12:51:37;23.13;;;10.20;;
64543;SDS011;50936;51.660;5.616;2022-12-18T12:54:21;25.42;;;10.90;;
64543;SDS011;50936;51.660;5.616;2022-12-18T13:00:03;17.13;;;8.20;;
64543;SDS011;50936;51.660;5.616;2022-12-18T13:08:03;26.83;;;11.60;;
64543;SDS011;50936;51.660;5.616;2022-12-18T13:10:43;19.83;;;10.43;;
64543;SDS011;50936;51.660;5.616;2022-12-18T13:13:11;27.15;;;11.43;;
64543;SDS011;50936;51.660;5.616;2022-12-18T13:16:07;22.77;;;10.15;;
64543;SDS011;50936;51.660;5.616;2022-12-18T13:18:34;26.15;;;11.73;;
64543;SDS011;50936;51.660;5.616;2022-12-18T13:21:04;25.98;;;10.90;;
64543;SDS011;50936;51.660;5.616;2022-12-18T13:23:49;30.00;;;11.98;;
64543;SDS011;50936;51.660;5.616;2022-12-18T13:28:53;29.52;;;12.73;;
64543;SDS011;50936;51.660;5.616;2022-12-18T13:36:54;20.58;;;9.52;;
64543;SDS011;50936;51.660;5.616;2022-12-18T13:39:43;27.60;;;10.68;;
64543;SDS011;50936;51.660;5.616;2022-12-18T13:45:16;24.02;;;10.45;;
64543;SDS011;50936;51.660;5.616;2022-12-18T13:48:21;26.17;;;10.93;;
64543;SDS011;50936;51.660;5.616;2022-12-18T13:50:59;27.00;;;10.50;;
64543;SDS011;50936;51.660;5.616;2022-12-18T13:53:42;25.83;;;9.05;;
64543;SDS011;50936;51.660;5.616;2022-12-18T13:56:22;24.90;;;10.43;;
64543;SDS011;50936;51.660;5.616;2022-12-18T13:59:38;26.35;;;11.57;;
64543;SDS011;50936;51.660;5.616;2022-12-18T14:01:54;27.02;;;12.32;;
64543;SDS011;50936;51.660;5.616;2022-12-18T14:04:30;22.17;;;10.45;;
64543;SDS011;50936;51.660;5.616;2022-12-18T14:09:45;22.08;;;10.25;;
64543;SDS011;50936;51.660;5.616;2022-12-18T14:12:21;25.98;;;10.18;;
64543;SDS011;50936;51.660;5.616;2022-12-18T14:17:54;21.25;;;8.88;;
64543;SDS011;50936;51.660;5.616;2022-12-18T14:20:31;32.13;;;13.60;;
64543;SDS011;50936;51.660;5.616;2022-12-18T14:22:59;28.42;;;10.75;;
64543;SDS011;50936;51.660;5.616;2022-12-18T14:25:27;21.10;;;8.68;;
64543;SDS011;50936;51.660;5.616;2022-12-18T14:30:43;24.35;;;10.55;;
64543;SDS011;50936;51.660;5.616;2022-12-18T14:33:13;25.40;;;11.05;;
64543;SDS011;50936;51.660;5.616;2022-12-18T14:36:13;27.67;;;11.90;;
64543;SDS011;50936;51.660;5.616;2022-12-18T14:38:43;20.55;;;9.52;;
64543;SDS011;50936;51.660;5.616;2022-12-18T14:41:20;27.75;;;12.95;;
64543;SDS011;50936;51.660;5.616;2022-12-18T14:43:49;23.02;;;10.43;;
64543;SDS011;50936;51.660;5.616;2022-12-18T14:49:04;26.20;;;12.32;;
64543;SDS011;50936;51.660;5.616;2022-12-18T14:51:56;31.23;;;13.90;;
64543;SDS011;50936;51.660;5.616;2022-12-18T14:54:26;25.95;;;11.52;;
64543;SDS011;50936;51.660;5.616;2022-12-18T14:57:03;21.80;;;9.48;;
64543;SDS011;50936;51.660;5.616;2022-12-18T14:59:42;27.17;;;11.57;;
64543;SDS011;50936;51.660;5.616;2022-12-18T15:05:03;33.60;;;11.82;;
64543;SDS011;50936;51.660;5.616;2022-12-18T15:07:42;22.63;;;10.05;;
64543;SDS011;50936;51.660;5.616;2022-12-18T15:18:00;30.10;;;12.60;;
64543;SDS011;50936;51.660;5.616;2022-12-18T15:20:30;28.63;;;12.50;;
64543;SDS011;50936;51.660;5.616;2022-12-18T15:22:59;35.85;;;15.00;;
64543;SDS011;50936;51.660;5.616;2022-12-18T15:25:28;32.22;;;13.75;;
64543;SDS011;50936;51.660;5.616;2022-12-18T15:28:03;32.63;;;14.73;;
64543;SDS011;50936;51.660;5.616;2022-12-18T15:36:20;34.60;;;14.68;;
64543;SDS011;50936;51.660;5.616;2022-12-18T15:38:53;23.45;;;10.93;;
64543;SDS011;50936;51.660;5.616;2022-12-18T15:41:32;30.13;;;13.57;;
64543;SDS011;50936;51.660;5.616;2022-12-18T15:44:02;28.50;;;13.50;;
64543;SDS011;50936;51.660;5.616;2022-12-18T15:46:49;25.40;;;11.68;;
64543;SDS011;50936;51.660;5.616;2022-12-18T15:49:16;25.65;;;12.18;;
64543;SDS011;50936;51.660;5.616;2022-12-18T15:51:43;31.90;;;14.38;;
64543;SDS011;50936;51.660;5.616;2022-12-18T15:54:12;29.02;;;12.60;;
64543;SDS011;50936;51.660;5.616;2022-12-18T15:56:42;25.27;;;11.13;;
64543;SDS011;50936;51.660;5.616;2022-12-18T16:01:56;36.90;;;14.38;;
64543;SDS011;50936;51.660;5.616;2022-12-18T16:04:23;31.10;;;13.30;;
64543;SDS011;50936;51.660;5.616;2022-12-18T16:06:50;32.38;;;13.00;;
64543;SDS011;50936;51.660;5.616;2022-12-18T16:09:40;23.98;;;10.70;;
64543;SDS011;50936;51.660;5.616;2022-12-18T16:12:15;37.53;;;14.30;;
64543;SDS011;50936;51.660;5.616;2022-12-18T16:14:48;28.90;;;12.95;;
64543;SDS011;50936;51.660;5.616;2022-12-18T16:17:16;25.85;;;10.82;;
64543;SDS011;50936;51.660;5.616;2022-12-18T16:19:44;33.45;;;14.40;;
64543;SDS011;50936;51.660;5.616;2022-12-18T16:22:15;29.55;;;13.30;;
64543;SDS011;50936;51.660;5.616;2022-12-18T16:24:55;29.30;;;11.95;;
64543;SDS011;50936;51.660;5.616;2022-12-18T16:27:24;32.42;;;13.10;;
64543;SDS011;50936;51.660;5.616;2022-12-18T16:29:51;28.25;;;13.48;;
64543;SDS011;50936;51.660;5.616;2022-12-18T16:32:19;33.00;;;13.75;;
64543;SDS011;50936;51.660;5.616;2022-12-18T16:34:48;34.78;;;14.25;;
64543;SDS011;50936;51.660;5.616;2022-12-18T16:37:15;29.10;;;13.38;;
64543;SDS011;50936;51.660;5.616;2022-12-18T16:39:42;32.72;;;13.90;;
64543;SDS011;50936;51.660;5.616;2022-12-18T16:42:12;34.97;;;14.27;;
64543;SDS011;50936;51.660;5.616;2022-12-18T16:44:45;29.00;;;11.63;;
64543;SDS011;50936;51.660;5.616;2022-12-18T16:47:14;33.13;;;12.25;;
64543;SDS011;50936;51.660;5.616;2022-12-18T16:49:43;28.67;;;11.05;;
64543;SDS011;50936;51.660;5.616;2022-12-18T16:52:11;30.38;;;11.90;;
64543;SDS011;50936;51.660;5.616;2022-12-18T16:54:39;39.47;;;15.80;;
64543;SDS011;50936;51.660;5.616;2022-12-18T16:57:06;32.35;;;12.65;;
64543;SDS011;50936;51.660;5.616;2022-12-18T16:59:34;27.70;;;11.48;;
64543;SDS011;50936;51.660;5.616;2022-12-18T17:02:01;31.50;;;13.20;;
64543;SDS011;50936;51.660;5.616;2022-12-18T17:04:37;32.28;;;14.32;;
64543;SDS011;50936;51.660;5.616;2022-12-18T17:07:03;29.15;;;12.90;;
64543;SDS011;50936;51.660;5.616;2022-12-18T17:09:30;34.20;;;13.52;;
64543;SDS011;50936;51.660;5.616;2022-12-18T17:11:57;31.48;;;14.23;;
64543;SDS011;50936;51.660;5.616;2022-12-18T17:14:30;27.83;;;12.00;;
64543;SDS011;50936;51.660;5.616;2022-12-18T17:16:58;36.25;;;15.05;;
64543;SDS011;50936;51.660;5.616;2022-12-18T17:19:46;23.70;;;10.38;;
64543;SDS011;50936;51.660;5.616;2022-12-18T17:22:13;30.83;;;13.43;;
64543;SDS011;50936;51.660;5.616;2022-12-18T17:24:39;29.58;;;11.90;;
64543;SDS011;50936;51.660;5.616;2022-12-18T17:27:06;20.98;;;10.40;;
64543;SDS011;50936;51.660;5.616;2022-12-18T17:29:34;33.38;;;14.98;;
64543;SDS011;50936;51.660;5.616;2022-12-18T17:32:01;35.45;;;12.38;;